CDT,Max TemperatureF,Mean TemperatureF,Min TemperatureF,Max Dew PointF,MeanDew PointF,Min DewpointF,Max Humidity, Mean Humidity, Min Humidity, Max Sea Level PressureIn, Mean Sea Level PressureIn, Min Sea Level PressureIn, Max VisibilityMiles, Mean VisibilityMiles, Min VisibilityMiles, Max Wind SpeedMPH, Mean Wind SpeedMPH, Max Gust SpeedMPH,PrecipitationIn, CloudCover, Events, WindDirDegrees
2012-9-1,92,84,75,75,74,73,94,75,56,30.07,30.00,29.95,10,10,9,17,10,31,0.00,3,,194
2012-9-2,94,84,74,75,73,72,94,72,49,30.01,29.95,29.89,10,10,5,16,8,22,0.00,0,,211
2012-9-3,96,86,76,74,72,69,94,68,42,29.97,29.91,29.86,10,10,10,14,7,20,0.00,0,,216
2012-9-4,96,86,76,74,72,66,88,63,38,29.93,29.89,29.85,10,10,9,14,5,18,0.00,0,,211
2012-9-5,98,87,75,74,71,63,87,60,33,29.90,29.85,29.80,10,10,10,13,4,17,0.00,0,,234
2012-9-6,100,86,72,74,71,67,94,66,38,29.91,29.87,29.83,10,10,10,9,3,14,0.00,0,,144
2012-9-7,97,85,72,74,72,69,100,71,42,29.90,29.85,29.76,10,10,9,24,5,31,0.20,0,,169
2012-9-8,81,70,58,72,66,54,97,70,42,30.04,29.93,29.84,10,7,2,20,6,24,0.81,6,Rain-Thunderstorm,3
2012-9-9,83,69,54,61,55,50,100,67,34,30.13,30.07,30.03,10,10,10,12,2,17,0.00,0,,27
2012-9-10,86,71,55,62,58,54,100,69,37,30.16,30.09,30.05,10,10,10,8,1,12,0.00,0,,93
2012-9-11,84,70,57,62,59,57,100,70,40,30.14,30.10,30.06,10,10,10,12,1,16,0.00,0,,140
2012-9-12,86,73,60,67,63,59,100,71,42,30.16,30.10,30.04,10,10,10,15,4,20,0.00,2,,118
2012-9-13,86,78,69,72,69,64,97,77,57,30.17,30.12,30.07,10,10,10,16,4,22,T,4,Thunderstorm,129
2012-9-14,83,76,69,72,70,68,100,85,69,30.21,30.16,30.10,10,6,2,16,4,22,1.80,7,Rain-Thunderstorm,126
2012-9-15,76,73,69,72,70,68,100,90,79,30.19,30.15,30.07,10,5,2,7,1,15,0.10,7,Rain,6
2012-9-16,82,75,68,72,70,67,100,84,67,30.08,30.01,29.97,10,4,1,14,2,15,0.78,6,Rain-Thunderstorm,359
2012-9-17,71,69,67,70,69,68,100,99,97,29.98,29.85,29.78,10,6,1,10,4,17,1.50,8,Rain-Thunderstorm,360
2012-9-18,74,64,53,67,63,53,100,79,57,30.07,29.94,29.83,10,8,0,15,4,21,0.00,6,Fog,334
2012-9-19,76,63,49,56,52,47,100,68,36,30.18,30.12,30.07,10,10,8,8,1,13,0.00,0,,72
2012-9-20,80,65,50,62,55,50,100,71,42,30.12,30.06,30.00,10,10,10,10,2,14,0.00,0,,206
2012-9-21,84,70,55,63,58,54,100,72,43,30.04,29.99,29.94,10,10,10,12,3,14,0.00,0,,205
2012-9-22,88,73,57,69,61,57,100,71,42,30.11,30.05,29.96,10,10,9,10,2,14,0.00,0,,299
2012-9-23,82,71,60,62,57,53,93,70,47,30.25,30.17,30.10,10,10,10,15,4,21,0.00,0,,21
2012-9-24,83,70,56,69,59,49,90,72,54,30.22,30.13,30.03,10,10,10,10,5,25,0.00,0,,106
2012-9-25,87,78,68,71,68,64,100,74,48,30.07,30.02,29.98,10,7,2,16,8,23,0.00,0,,183
2012-9-26,86,75,64,70,67,63,100,74,48,30.09,30.05,30.01,10,7,2,14,5,30,0.00,2,,172
2012-9-27,86,74,62,69,65,62,100,73,45,30.14,30.08,30.02,10,10,6,9,2,15,0.00,0,,163
2012-9-28,86,74,61,69,66,62,100,76,51,30.09,30.04,29.98,10,8,2,8,2,9,0.00,0,,31
2012-9-29,71,68,65,70,68,64,100,92,84,30.01,29.94,29.89,9,6,2,13,6,16,0.25,6,Rain,39
2012-9-30,65,61,57,64,60,55,100,97,93,29.90,29.76,29.70,10,4,1,23,12,33,1.99,8,Rain,25